Time;durP1;ratioP1;P1;durP2;ratioP2;P2;SDS_P1;SDS_P2;PMS_P1;PMS_P2;Temp;Humidity;BMP_temperature;BMP_pressure;BME280_temperature;BME280_humidity;BME280_pressure;Samples;Min_cycle;Max_cycle;Signal;HPM_P1;HPM_P2
2022/07/09 00:00:41;;;;;;;2.80;2.38;;;;;;;18.13;65.29;93732.13;4992796;28;20030;-80
2022/07/09 00:03:06;;;;;;;2.63;2.10;;;;;;;18.48;65.40;93764.91;4992494;28;20576;-79
2022/07/09 00:05:31;;;;;;;2.28;2.08;;;;;;;18.30;65.23;93751.22;4992825;28;20113;-79
2022/07/09 00:07:57;;;;;;;3.00;2.70;;;;;;;18.73;64.98;93808.38;4993160;28;20373;-79
2022/07/09 00:10:22;;;;;;;3.42;2.78;;;;;;;18.69;64.77;93802.91;4993762;28;20034;-79
2022/07/09 00:12:48;;;;;;;2.75;2.55;;;;;;;18.52;65.29;93792.69;4993055;28;20057;-80
2022/07/09 00:15:13;;;;;;;4.07;3.22;;;;;;;18.69;64.78;93813.69;4990851;28;20038;-79
2022/07/09 00:17:39;;;;;;;3.35;2.80;;;;;;;18.64;64.52;93800.53;4995622;28;20030;-79
2022/07/09 00:20:05;;;;;;;5.20;2.78;;;;;;;18.77;65.21;93809.97;4991904;28;20018;-80
2022/07/09 00:22:34;;;;;;;3.45;3.13;;;;;;;18.31;65.55;93779.69;4993568;28;20041;-80
2022/07/09 00:25:00;;;;;;;7.43;3.72;;;;;;;18.02;68.42;93810.75;4996596;28;20034;-80
2022/07/09 00:27:25;;;;;;;5.07;4.05;;;;;;;17.07;71.13;93776.69;5007581;28;20030;-79
2022/07/09 00:29:51;;;;;;;4.32;3.63;;;;;;;17.05;71.63;93768.22;4996273;28;20038;-79
2022/07/09 00:32:18;;;;;;;6.80;3.53;;;;;;;17.63;70.13;93811.97;4993540;28;20578;-78
2022/07/09 00:34:43;;;;;;;3.35;3.03;;;;;;;17.58;70.18;93802.28;4994369;28;20080;-79
2022/07/09 00:37:09;;;;;;;6.82;3.50;;;;;;;17.12;70.50;93769.13;4995650;28;20073;-79
2022/07/09 00:39:34;;;;;;;4.43;3.35;;;;;;;17.59;70.19;93816.53;4992086;28;20030;-79
2022/07/09 00:42:08;;;;;;;3.08;2.65;;;;;;;17.71;69.30;93802.09;4993157;28;20065;-80
2022/07/09 00:44:34;;;;;;;4.53;3.25;;;;;;;17.55;69.65;93803.00;4993371;28;20045;-80
2022/07/09 00:47:00;;;;;;;3.55;2.75;;;;;;;17.46;68.95;93780.16;4993197;28;20104;-79
2022/07/09 00:49:28;;;;;;;3.03;2.20;;;;;;;17.64;68.94;93796.63;4991775;28;20152;-79
2022/07/09 00:51:54;;;;;;;4.70;3.00;;;;;;;17.13;69.85;93762.66;4994069;28;20265;-79
2022/07/09 00:54:19;;;;;;;2.90;2.60;;;;;;;17.46;69.34;93780.16;4992538;28;20566;-79
2022/07/09 00:56:46;;;;;;;3.55;2.50;;;;;;;17.50;69.35;93775.63;4994107;28;20571;-79
2022/07/09 00:59:13;;;;;;;3.63;2.03;;;;;;;17.67;68.52;93769.00;4993019;28;20065;-79
2022/07/09 01:01:39;;;;;;;2.88;2.60;;;;;;;17.65;68.84;93782.78;4994310;28;20125;-80
2022/07/09 01:04:06;;;;;;;2.58;2.20;;;;;;;17.70;68.66;93774.44;4997580;28;20030;-79
2022/07/09 01:06:32;;;;;;;5.10;3.17;;;;;;;17.65;68.75;93782.78;4991614;28;20509;-82
2022/07/09 01:08:57;;;;;;;3.50;2.80;;;;;;;17.51;68.25;93763.72;4992083;28;20149;-82
2022/07/09 01:11:22;;;;;;;2.95;2.38;;;;;;;17.15;68.53;93701.28;4985911;28;20053;-82
2022/07/09 01:13:49;;;;;;;2.55;2.30;;;;;;;17.42;68.37;93773.94;4990739;28;20022;-81
2022/07/09 01:16:15;;;;;;;3.35;2.80;;;;;;;17.14;69.39;93745.41;4990171;28;20111;-82
2022/07/09 01:18:43;;;;;;;3.95;2.42;;;;;;;17.24;69.08;93756.72;4995022;28;20050;-80
2022/07/09 01:21:09;;;;;;;2.92;2.63;;;;;;;17.32;68.74;93758.38;4995174;28;20042;-79
2022/07/09 01:23:34;;;;;;;3.92;2.88;;;;;;;17.33;69.49;93768.00;4993032;28;20568;-80
2022/07/09 01:26:00;;;;;;;3.00;2.10;;;;;;;17.23;69.93;93747.88;4993693;28;20105;-79
2022/07/09 01:28:26;;;;;;;3.50;2.55;;;;;;;16.98;70.15;93755.44;4991028;28;20503;-79
2022/07/09 01:30:51;;;;;;;2.70;2.38;;;;;;;16.89;70.10;93725.31;5004305;28;20289;-80
2022/07/09 01:33:17;;;;;;;4.50;2.83;;;;;;;16.81;70.58;93738.97;4990729;28;20050;-79
2022/07/09 01:35:42;;;;;;;5.20;2.85;;;;;;;17.00;70.88;93769.28;4991263;28;20069;-80
2022/07/09 01:38:08;;;;;;;4.72;2.50;;;;;;;17.04;70.18;93737.91;4991468;28;20406;-80
2022/07/09 01:40:33;;;;;;;2.40;2.13;;;;;;;17.09;69.37;93726.88;4989863;28;20113;-79
2022/07/09 01:42:59;;;;;;;3.63;2.47;;;;;;;17.36;69.44;93764.59;4990112;28;20394;-78
2022/07/09 01:45:24;;;;;;;2.72;2.40;;;;;;;17.45;68.98;93744.41;4992438;28;20053;-80
2022/07/09 01:47:50;;;;;;;2.55;2.30;;;;;;;17.70;68.30;93757.53;4990820;28;20061;-80
2022/07/09 01:50:15;;;;;;;2.67;1.85;;;;;;;17.54;68.08;93730.75;4994151;28;20021;-80
2022/07/09 01:52:41;;;;;;;2.80;2.55;;;;;;;17.66;68.08;93760.16;4992537;28;20658;-80
2022/07/09 01:55:07;;;;;;;2.60;2.40;;;;;;;17.60;68.12;93748.13;4992946;28;20042;-80
2022/07/09 01:57:32;;;;;;;2.47;1.98;;;;;;;17.87;67.59;93751.66;5000038;28;20091;-79
2022/07/09 01:59:58;;;;;;;3.10;1.95;;;;;;;17.81;67.31;93748.50;4999156;28;20037;-81
2022/07/09 02:02:23;;;;;;;3.03;2.28;;;;;;;17.60;67.24;93710.50;4998208;28;20035;-80
2022/07/09 02:04:48;;;;;;;1.98;1.73;;;;;;;17.71;66.75;93732.97;4999121;28;20022;-80
2022/07/09 02:07:14;;;;;;;3.20;2.60;;;;;;;17.79;67.30;93752.69;4998906;28;20124;-79
2022/07/09 02:09:40;;;;;;;2.58;1.73;;;;;;;17.82;67.00;93750.06;4998353;28;20597;-80
2022/07/09 02:12:06;;;;;;;2.80;2.30;;;;;;;17.86;66.77;93750.09;4998625;28;20034;-80
2022/07/09 02:14:32;;;;;;;2.42;2.10;;;;;;;17.73;67.13;93746.06;4999198;28;20246;-80
2022/07/09 02:16:58;;;;;;;2.65;2.35;;;;;;;17.68;66.43;93730.22;5009910;28;20029;-79
2022/07/09 02:19:24;;;;;;;3.40;2.10;;;;;;;17.95;65.84;93756.81;5016015;28;20029;-80
2022/07/09 02:21:49;;;;;;;2.88;2.40;;;;;;;17.36;66.93;93754.63;5012353;28;20066;-80
2022/07/09 02:24:15;;;;;;;3.20;2.10;;;;;;;17.39;67.71;93761.22;5005399;28;20030;-79
2022/07/09 02:26:40;;;;;;;2.05;1.80;;;;;;;17.49;66.88;93764.09;5017725;28;20056;-80
2022/07/09 02:29:06;;;;;;;1.98;1.77;;;;;;;17.57;66.63;93759.63;5001260;28;20062;-80
2022/07/09 02:31:31;;;;;;;3.42;2.30;;;;;;;17.37;66.62;93734.69;5000652;28;20026;-80
2022/07/09 02:33:57;;;;;;;2.75;2.05;;;;;;;17.49;66.46;93744.50;5001256;28;20254;-79
2022/07/09 02:36:22;;;;;;;1.83;1.70;;;;;;;17.58;66.00;93745.03;5000333;28;20038;-80
2022/07/09 02:38:48;;;;;;;1.60;1.50;;;;;;;17.67;65.70;93753.66;4998186;28;20030;-80
2022/07/09 02:41:13;;;;;;;1.70;1.60;;;;;;;17.72;65.71;93771.41;4998635;28;20026;-80
2022/07/09 02:43:42;;;;;;;1.65;1.55;;;;;;;17.63;65.82;93762.78;4999528;28;20081;-80
2022/07/09 02:46:08;;;;;;;1.80;1.50;;;;;;;17.63;65.78;93760.09;5012979;28;20030;-80
2022/07/09 02:48:33;;;;;;;2.20;1.65;;;;;;;17.40;66.75;93762.78;4999330;28;20030;-80
2022/07/09 02:51:00;;;;;;;2.25;1.65;;;;;;;17.41;66.02;93732.06;4998169;28;20062;-80
2022/07/09 02:53:25;;;;;;;2.22;1.85;;;;;;;17.58;65.54;93742.34;5002309;28;20039;-80
2022/07/09 02:55:51;;;;;;;2.50;2.03;;;;;;;17.88;65.48;93780.91;4999481;28;20386;-80
2022/07/09 02:58:16;;;;;;;1.60;1.40;;;;;;;17.66;65.53;93741.31;4998219;28;20287;-79
2022/07/09 03:00:41;;;;;;;3.30;2.17;;;;;;;17.90;65.13;93783.22;5000836;28;20125;-80
2022/07/09 03:03:08;;;;;;;3.20;1.85;;;;;;;17.90;65.07;93786.69;4997781;28;20087;-80
2022/07/09 03:05:34;;;;;;;2.25;1.90;;;;;;;17.86;65.54;93785.84;5003186;28;20121;-80
2022/07/09 03:08:00;;;;;;;3.33;1.95;;;;;;;17.66;65.29;93764.75;5002353;28;20100;-80
2022/07/09 03:10:27;;;;;;;2.83;1.90;;;;;;;17.96;65.17;93798.75;4999982;28;20499;-80
2022/07/09 03:12:55;;;;;;;2.60;1.83;;;;;;;18.02;65.40;93786.56;5004094;28;20167;-79
2022/07/09 03:15:21;;;;;;;1.75;1.65;;;;;;;18.04;64.99;93784.25;5019364;28;20029;-79
2022/07/09 03:17:48;;;;;;;1.70;1.60;;;;;;;18.07;64.73;93787.38;5021787;28;20035;-80
2022/07/09 03:20:14;;;;;;;2.10;1.90;;;;;;;18.07;64.31;93776.63;5012737;28;20030;-79
2022/07/09 03:22:40;;;;;;;2.53;2.10;;;;;;;18.03;64.17;93769.28;5010608;28;20042;-80
2022/07/09 03:25:07;;;;;;;2.70;1.90;;;;;;;18.24;64.26;93789.56;5019656;28;20026;-80
2022/07/09 03:27:33;;;;;;;1.90;1.70;;;;;;;18.03;63.83;93763.88;5005852;28;20049;-80
2022/07/09 03:29:59;;;;;;;3.60;1.55;;;;;;;18.16;63.97;93782.53;5003771;28;20034;-80
2022/07/09 03:32:24;;;;;;;2.00;1.73;;;;;;;18.06;63.89;93764.28;5001577;28;20117;-80
2022/07/09 03:34:52;;;;;;;2.00;1.75;;;;;;;17.86;63.92;93728.59;5004568;28;20489;-80
2022/07/09 03:37:17;;;;;;;2.10;1.90;;;;;;;17.71;64.19;93713.34;4999312;28;20042;-80
2022/07/09 03:39:43;;;;;;;2.28;1.88;;;;;;;18.01;64.20;93750.00;5003718;28;20041;-80
2022/07/09 03:42:08;;;;;;;2.28;2.00;;;;;;;18.14;64.06;93757.91;5002241;28;20037;-80
2022/07/09 03:44:34;;;;;;;3.25;2.95;;;;;;;18.19;63.94;93771.03;5002560;28;20030;-79
2022/07/09 03:46:59;;;;;;;1.90;1.70;;;;;;;18.07;64.32;93749.69;5002886;28;20033;-80
2022/07/09 03:49:25;;;;;;;1.95;1.50;;;;;;;18.25;63.60;93778.44;5013551;28;20034;-80
2022/07/09 03:51:51;;;;;;;1.80;1.60;;;;;;;18.01;64.02;93744.63;5001750;28;20033;-80
2022/07/09 03:54:16;;;;;;;1.98;1.58;;;;;;;18.15;63.59;93772.88;5002355;28;20051;-80
2022/07/09 03:56:42;;;;;;;2.10;1.90;;;;;;;18.15;64.08;93762.13;4997168;28;20034;-83
2022/07/09 03:59:07;;;;;;;1.85;1.63;;;;;;;18.26;64.41;93782.69;4989316;28;20042;-82
2022/07/09 04:01:33;;;;;;;2.10;1.70;;;;;;;18.07;64.28;93758.56;4993284;28;20508;-82
2022/07/09 04:03:58;;;;;;;2.40;1.90;;;;;;;18.33;64.37;93785.47;4992820;28;20107;-82
2022/07/09 04:06:24;;;;;;;4.72;1.85;;;;;;;18.31;64.27;93770.81;4992296;28;20784;-83
2022/07/09 04:08:50;;;;;;;2.10;1.70;;;;;;;18.39;64.37;93783.25;4993425;28;20035;-83
2022/07/09 04:11:16;;;;;;;2.35;1.80;;;;;;;18.28;64.32;93776.94;4991095;28;20792;-83
2022/07/09 04:13:41;;;;;;;2.47;2.05;;;;;;;17.87;64.51;93730.16;4992502;28;20017;-83
2022/07/09 04:16:07;;;;;;;2.08;1.73;;;;;;;18.37;64.14;93797.09;4991586;28;20045;-83
2022/07/09 04:18:34;;;;;;;2.45;1.92;;;;;;;17.99;63.96;93733.44;4989433;28;20125;-82
2022/07/09 04:20:59;;;;;;;2.58;1.88;;;;;;;18.35;64.00;93785.13;4991217;28;20042;-82
2022/07/09 04:23:25;;;;;;;2.28;1.83;;;;;;;18.12;63.93;93766.31;4990603;28;20052;-81
2022/07/09 04:25:50;;;;;;;3.28;1.77;;;;;;;17.91;63.97;93742.50;5006940;28;20484;-82
2022/07/09 04:28:18;;;;;;;3.38;2.05;;;;;;;18.22;63.76;93795.31;4994033;28;20065;-83
2022/07/09 04:30:47;;;;;;;2.83;1.77;;;;;;;18.33;64.18;93817.03;4990797;28;20069;-80
2022/07/09 04:33:12;;;;;;;2.30;1.95;;;;;;;18.14;64.29;93809.03;4989571;28;20400;-82
2022/07/09 04:35:38;;;;;;;3.28;2.30;;;;;;;17.81;65.02;93767.34;4996821;28;20108;-82
2022/07/09 04:38:04;;;;;;;2.03;1.80;;;;;;;17.94;64.91;93781.41;4990888;28;20042;-82
2022/07/09 04:40:30;;;;;;;4.55;2.13;;;;;;;17.93;64.68;93759.13;4989818;28;20150;-82
2022/07/09 04:42:56;;;;;;;2.47;1.70;;;;;;;18.03;65.27;93788.09;4992329;28;20801;-82
2022/07/09 04:45:21;;;;;;;2.00;1.85;;;;;;;18.03;64.93;93796.19;4992928;28;20435;-80
2022/07/09 04:47:47;;;;;;;3.80;2.30;;;;;;;18.07;65.19;93803.53;4992016;28;20041;-82
2022/07/09 04:50:13;;;;;;;2.10;1.88;;;;;;;17.87;65.22;93778.56;4991617;28;20026;-81
2022/07/09 04:52:39;;;;;;;2.33;2.05;;;;;;;17.90;65.32;93793.97;4991529;28;20025;-82
2022/07/09 04:55:05;;;;;;;2.40;1.77;;;;;;;18.01;65.62;93797.66;4987969;28;20112;-82
2022/07/09 04:57:30;;;;;;;2.50;2.03;;;;;;;18.14;65.05;93796.31;4988747;28;20560;-83
2022/07/09 05:00:00;;;;;;;4.10;2.13;;;;;;;17.91;65.14;93785.56;4988577;28;20041;-81
2022/07/09 05:02:26;;;;;;;2.70;2.20;;;;;;;17.88;66.09;93805.13;4991000;28;20061;-82
2022/07/09 05:04:51;;;;;;;2.45;1.90;;;;;;;17.62;67.01;93794.28;4991018;28;20053;-83
2022/07/09 05:07:17;;;;;;;2.40;1.92;;;;;;;17.66;67.35;93811.25;5003681;28;20123;-82
2022/07/09 05:09:42;;;;;;;2.78;2.08;;;;;;;17.48;67.73;93799.41;4991742;28;20034;-84
2022/07/09 05:12:10;;;;;;;2.38;2.17;;;;;;;17.46;67.96;93801.66;4990592;28;20156;-81
2022/07/09 05:14:36;;;;;;;2.30;2.10;;;;;;;17.27;67.79;93793.63;4990440;28;20042;-83
2022/07/09 05:17:01;;;;;;;4.75;2.05;;;;;;;17.47;67.53;93787.09;5005606;28;20018;-83
2022/07/09 05:19:27;;;;;;;2.38;2.15;;;;;;;17.43;67.29;93780.88;4989503;28;20789;-83
2022/07/09 05:21:52;;;;;;;2.10;1.83;;;;;;;17.53;67.03;93785.66;4987722;28;20038;-81
2022/07/09 05:24:18;;;;;;;1.77;1.63;;;;;;;17.23;66.70;93771.28;4991644;28;20029;-82
2022/07/09 05:26:43;;;;;;;2.25;1.90;;;;;;;17.53;67.14;93815.25;4986987;28;20037;-82
2022/07/09 05:29:08;;;;;;;2.05;1.63;;;;;;;17.41;66.88;93799.25;4988944;28;20026;-82
2022/07/09 05:31:34;;;;;;;2.30;1.83;;;;;;;16.81;67.82;93761.25;4991795;28;20021;-82
2022/07/09 05:34:00;;;;;;;2.78;1.50;;;;;;;17.20;68.86;93833.81;5004499;28;20046;-82
2022/07/09 05:36:28;;;;;;;1.92;1.70;;;;;;;16.97;68.57;93817.56;4989072;28;20117;-82
2022/07/09 05:38:54;;;;;;;1.98;1.77;;;;;;;16.84;69.33;93840.31;5004544;28;20062;-82
2022/07/09 05:41:19;;;;;;;2.33;1.70;;;;;;;17.06;68.88;93836.97;4992849;28;20650;-82
2022/07/09 05:43:44;;;;;;;1.98;1.70;;;;;;;16.82;69.21;93827.22;4990417;28;20382;-82
2022/07/09 05:46:10;;;;;;;4.78;1.75;;;;;;;17.06;69.02;93837.72;4990646;28;20022;-82
2022/07/09 05:48:35;;;;;;;1.80;1.70;;;;;;;16.92;69.05;93826.69;4990069;28;20030;-83
2022/07/09 05:51:00;;;;;;;1.52;1.42;;;;;;;16.69;69.20;93774.78;4989562;28;20582;-82
2022/07/09 05:53:26;;;;;;;1.67;1.55;;;;;;;17.34;68.36;93842.16;4983023;28;20824;-82
2022/07/09 05:55:51;;;;;;;2.05;1.73;;;;;;;17.13;68.48;93835.22;4988722;28;22140;-82
2022/07/09 05:58:17;;;;;;;1.88;1.60;;;;;;;17.24;68.07;93823.91;4990285;28;20402;-82
2022/07/09 06:00:42;;;;;;;2.78;1.65;;;;;;;17.01;68.05;93813.81;4994655;28;20652;-82
2022/07/09 06:03:07;;;;;;;2.13;1.75;;;;;;;16.75;68.50;93784.91;4988418;28;20116;-82
2022/07/09 06:05:33;;;;;;;2.03;1.80;;;;;;;17.24;68.43;93848.09;4990876;28;20060;-82
2022/07/09 06:07:58;;;;;;;2.13;1.70;;;;;;;17.11;67.96;93840.13;4987688;28;20457;-83
2022/07/09 06:10:24;;;;;;;1.25;1.15;;;;;;;17.20;68.26;93821.16;4987719;28;20136;-83
2022/07/09 06:12:50;;;;;;;1.42;1.30;;;;;;;17.02;68.15;93820.75;4987742;28;20049;-83
2022/07/09 06:15:15;;;;;;;2.25;1.63;;;;;;;17.14;68.53;93844.84;4988685;28;20040;-83
2022/07/09 06:17:41;;;;;;;1.75;1.30;;;;;;;17.00;67.95;93817.66;4990081;28;20322;-82
2022/07/09 06:20:07;;;;;;;1.95;1.40;;;;;;;17.35;67.75;93854.47;4988891;28;20939;-82
2022/07/09 06:22:32;;;;;;;2.95;1.52;;;;;;;17.18;68.01;93851.06;4989699;28;20136;-83
2022/07/09 06:24:58;;;;;;;3.30;1.52;;;;;;;17.16;68.56;93844.47;4987964;28;20169;-82
2022/07/09 06:27:24;;;;;;;1.85;1.60;;;;;;;16.86;68.41;93798.56;4991878;28;20052;-82
2022/07/09 06:29:49;;;;;;;1.50;1.38;;;;;;;17.32;67.95;93837.13;4988753;28;20104;-81
2022/07/09 06:32:15;;;;;;;5.88;1.92;;;;;;;17.28;68.33;93843.56;4995526;28;20025;-82
2022/07/09 06:34:40;;;;;;;2.22;1.70;;;;;;;17.25;67.79;93831.63;4989051;28;20647;-80
2022/07/09 06:37:06;;;;;;;2.40;1.55;;;;;;;17.28;68.03;93844.34;5003196;28;20038;-79
2022/07/09 06:39:47;;;;;;;1.75;1.40;;;;;;;17.43;67.22;93829.28;4993922;28;20056;-80
2022/07/09 06:42:13;;;;;;;1.88;1.65;;;;;;;17.77;66.69;93851.78;4996753;28;20216;-80
2022/07/09 06:44:39;;;;;;;2.03;1.58;;;;;;;17.88;66.92;93858.94;4998020;28;20034;-79
2022/07/09 06:47:05;;;;;;;2.33;2.10;;;;;;;17.80;66.86;93822.25;4999975;28;20018;-82
2022/07/09 06:49:31;;;;;;;2.00;1.58;;;;;;;17.89;66.11;93857.78;4992868;28;20036;-82
2022/07/09 06:51:57;;;;;;;2.97;1.80;;;;;;;17.84;66.74;93860.78;4989002;28;20414;-81
2022/07/09 06:54:23;;;;;;;1.98;1.77;;;;;;;17.79;66.01;93842.25;4990567;28;20471;-82
2022/07/09 06:56:48;;;;;;;1.50;1.40;;;;;;;17.67;66.50;93815.50;4988170;28;20034;-82
2022/07/09 06:59:14;;;;;;;2.10;1.55;;;;;;;17.98;66.07;93855.69;4989939;28;20791;-81
2022/07/09 07:01:40;;;;;;;3.13;1.83;;;;;;;18.00;66.26;93864.16;4989971;28;20480;-82
2022/07/09 07:04:06;;;;;;;1.85;1.45;;;;;;;17.87;66.14;93833.16;4990148;28;20030;-82
2022/07/09 07:06:31;;;;;;;2.15;1.77;;;;;;;17.91;66.27;93844.75;4990040;28;20041;-82
2022/07/09 07:08:57;;;;;;;2.60;2.10;;;;;;;17.77;66.48;93844.50;4988688;28;20096;-82
2022/07/09 07:11:22;;;;;;;3.75;2.17;;;;;;;18.01;66.56;93859.56;4995453;28;20038;-82
2022/07/09 07:13:48;;;;;;;2.70;1.85;;;;;;;17.41;67.03;93853.81;4992833;28;20022;-81
2022/07/09 07:16:14;;;;;;;3.08;2.00;;;;;;;17.64;67.58;93870.00;4991702;28;20054;-82
2022/07/09 07:18:39;;;;;;;4.97;1.77;;;;;;;17.29;68.13;93847.81;4990855;28;20038;-83
2022/07/09 07:21:05;;;;;;;7.88;2.20;;;;;;;17.48;68.04;93847.81;4988509;28;20748;-83
2022/07/09 07:23:32;;;;;;;2.85;2.03;;;;;;;17.56;67.77;93818.00;4988369;28;20037;-82
2022/07/09 07:25:59;;;;;;;2.40;2.03;;;;;;;17.90;67.20;93863.94;4990536;28;20116;-82
2022/07/09 07:28:24;;;;;;;2.45;2.00;;;;;;;17.71;66.32;93831.69;4992287;28;20484;-82
2022/07/09 07:30:50;;;;;;;2.15;1.90;;;;;;;17.95;66.14;93869.84;4997337;28;20088;-82
2022/07/09 07:33:15;;;;;;;2.22;2.00;;;;;;;17.92;66.48;93854.38;4989502;28;20037;-82
2022/07/09 07:35:41;;;;;;;2.03;1.83;;;;;;;17.64;66.93;93842.34;4993631;28;20047;-83
2022/07/09 07:38:06;;;;;;;2.05;1.80;;;;;;;17.47;68.26;93871.22;4992057;28;20034;-82
2022/07/09 07:40:31;;;;;;;2.22;1.92;;;;;;;17.30;68.13;93830.56;4990057;28;20028;-81
2022/07/09 07:42:57;;;;;;;2.45;2.20;;;;;;;17.48;68.46;93847.81;4988922;28;20092;-83
2022/07/09 07:45:22;;;;;;;3.40;2.90;;;;;;;17.49;68.50;93849.38;4990873;28;20038;-81
2022/07/09 07:47:48;;;;;;;2.45;2.22;;;;;;;17.43;69.26;93853.47;4989420;28;20100;-81
2022/07/09 07:50:13;;;;;;;2.72;2.08;;;;;;;17.53;68.54;93850.19;4989212;28;20164;-81
2022/07/09 07:52:39;;;;;;;2.22;1.80;;;;;;;17.49;69.09;93871.66;4989668;28;20014;-80
2022/07/09 07:55:04;;;;;;;2.53;2.05;;;;;;;17.17;69.97;93844.13;4988136;28;20129;-79
2022/07/09 07:57:30;;;;;;;3.35;2.15;;;;;;;17.36;70.35;93872.13;4991286;28;20038;-80
2022/07/09 07:59:56;;;;;;;2.80;1.92;;;;;;;17.56;69.92;93861.03;4986273;28;20065;-80
2022/07/09 08:02:22;;;;;;;4.93;4.15;;;;;;;17.10;70.03;93814.41;4989226;28;20149;-79
2022/07/09 08:04:47;;;;;;;2.83;2.13;;;;;;;17.58;69.38;93847.22;4985605;28;20102;-80
2022/07/09 08:07:12;;;;;;;4.18;2.22;;;;;;;17.63;69.54;93870.34;4985860;28;21698;-79
2022/07/09 08:09:38;;;;;;;3.05;2.70;;;;;;;17.48;69.24;93829.75;4986448;28;20042;-80
2022/07/09 08:12:03;;;;;;;2.78;2.30;;;;;;;17.56;69.22;93833.34;4987400;28;20034;-79
2022/07/09 08:14:29;;;;;;;4.38;2.58;;;;;;;17.66;69.17;93846.22;4988337;28;20105;-80
2022/07/09 08:16:54;;;;;;;3.33;2.00;;;;;;;17.30;69.08;93825.19;4989669;28;20021;-80
2022/07/09 08:19:19;;;;;;;2.83;2.50;;;;;;;17.42;69.24;93833.88;4989301;28;20030;-80
2022/07/09 08:21:45;;;;;;;2.85;2.53;;;;;;;17.61;69.92;93868.81;4985254;28;20392;-80
2022/07/09 08:24:10;;;;;;;2.90;2.40;;;;;;;17.27;70.60;93844.69;4986038;28;20038;-80
2022/07/09 08:26:36;;;;;;;3.05;2.38;;;;;;;17.26;71.14;93835.84;4988736;28;20647;-80
2022/07/09 08:29:01;;;;;;;3.40;2.67;;;;;;;17.40;70.59;93840.75;4994622;28;20026;-80
2022/07/09 08:31:27;;;;;;;2.67;2.25;;;;;;;17.28;70.96;93870.44;4993401;28;20058;-78
2022/07/09 08:33:52;;;;;;;3.42;2.53;;;;;;;17.18;71.97;93867.19;5007292;28;20997;-80
2022/07/09 08:36:18;;;;;;;3.17;2.35;;;;;;;17.17;71.95;93868.31;4991951;28;20401;-80
2022/07/09 08:38:44;;;;;;;3.88;2.85;;;;;;;17.15;71.94;93845.63;4991544;28;20275;-80
2022/07/09 08:41:09;;;;;;;5.03;2.50;;;;;;;17.29;71.00;93858.56;4989468;28;20118;-79
2022/07/09 08:43:38;;;;;;;2.53;2.25;;;;;;;17.39;70.80;93858.78;4990441;28;21132;-80
2022/07/09 08:46:06;;;;;;;2.63;2.20;;;;;;;17.00;71.75;93871.38;4988475;28;20061;-79
2022/07/09 08:48:36;;;;;;;3.10;2.70;;;;;;;16.88;71.11;93836.56;4990276;28;20037;-79
2022/07/09 08:51:03;;;;;;;3.00;2.65;;;;;;;16.99;71.74;93869.81;4989539;28;20084;-80
2022/07/09 08:53:29;;;;;;;3.08;2.65;;;;;;;17.17;71.89;93876.38;4990392;28;20510;-80
2022/07/09 08:55:55;;;;;;;3.10;2.42;;;;;;;17.44;71.05;93873.84;4988653;28;20526;-80
2022/07/09 08:58:21;;;;;;;2.95;2.30;;;;;;;17.66;70.67;93880.41;4988201;28;20426;-79
2022/07/09 09:00:48;;;;;;;3.28;2.65;;;;;;;17.84;70.47;93876.94;4993115;28;20049;-80
2022/07/09 09:03:14;;;;;;;2.47;2.28;;;;;;;17.97;69.63;93874.88;4989460;28;20052;-80
2022/07/09 09:05:39;;;;;;;3.17;2.88;;;;;;;17.98;69.69;93879.13;4991142;28;20034;-80
2022/07/09 09:08:23;;;;;;;6.22;2.63;;;;;;;17.89;69.11;93865.84;4983842;28;20057;-80
2022/07/09 09:10:49;;;;;;;4.63;2.83;;;;;;;17.71;69.21;93848.63;5001848;28;20441;-80
2022/07/09 09:13:16;;;;;;;2.78;2.35;;;;;;;17.90;69.34;93875.47;4986413;28;20049;-80
2022/07/09 09:15:42;;;;;;;3.35;2.95;;;;;;;17.42;70.25;93833.88;4990594;28;20100;-80
2022/07/09 09:18:08;;;;;;;3.30;2.80;;;;;;;17.56;69.49;93849.47;4987828;28;20046;-80
2022/07/09 09:20:34;;;;;;;3.53;2.70;;;;;;;17.36;69.84;93837.97;4990770;28;20402;-79
2022/07/09 09:23:02;;;;;;;3.10;2.70;;;;;;;17.64;69.78;93851.19;4992642;28;20025;-80
2022/07/09 09:25:28;;;;;;;3.60;3.30;;;;;;;17.78;68.62;93864.13;4989794;28;20036;-81
2022/07/09 09:27:58;;;;;;;3.75;3.42;;;;;;;17.41;69.57;93840.38;4988644;28;20126;-80
2022/07/09 09:30:25;;;;;;;3.35;2.80;;;;;;;17.14;71.18;93863.66;4990215;28;20053;-80
2022/07/09 09:33:09;;;;;;;4.25;3.55;;;;;;;16.88;73.68;93847.31;4988567;28;20430;-80
2022/07/09 09:35:35;;;;;;;5.05;3.80;;;;;;;16.77;73.39;93803.34;4987649;28;20436;-80
2022/07/09 09:38:01;;;;;;;4.50;3.17;;;;;;;16.59;74.55;93839.78;4990922;28;20022;-80
2022/07/09 09:40:27;;;;;;;4.82;3.83;;;;;;;16.81;74.70;93852.56;5004410;28;20139;-80
2022/07/09 09:42:53;;;;;;;3.60;3.25;;;;;;;16.89;74.41;93856.94;4988743;28;20038;-80
2022/07/09 09:45:19;;;;;;;3.20;2.83;;;;;;;16.91;74.31;93849.31;4989250;28;20053;-80
2022/07/09 09:47:49;;;;;;;4.65;3.53;;;;;;;16.89;75.03;93859.63;4988963;28;20085;-80
2022/07/09 09:50:22;;;;;;;4.82;3.50;;;;;;;16.97;74.96;93855.16;5002269;28;20038;-80
2022/07/09 09:52:50;;;;;;;4.70;3.00;;;;;;;17.21;75.10;93860.31;4988434;28;20056;-80
2022/07/09 09:55:17;;;;;;;3.83;3.50;;;;;;;17.16;75.35;93864.06;4987352;28;20493;-80
2022/07/09 09:57:43;;;;;;;4.03;3.25;;;;;;;16.93;75.90;93849.72;4988025;28;20038;-81
2022/07/09 10:00:11;;;;;;;4.32;3.85;;;;;;;16.95;76.81;93866.28;4989322;28;20281;-80
2022/07/09 10:02:42;;;;;;;5.32;4.15;;;;;;;16.46;77.38;93847.16;4987059;28;20030;-80
2022/07/09 10:05:07;;;;;;;5.88;4.45;;;;;;;16.16;78.19;93854.88;4986839;28;20433;-81
2022/07/09 10:07:33;;;;;;;5.00;4.50;;;;;;;15.90;77.65;93863.41;4987979;28;20442;-80
2022/07/09 10:09:59;;;;;;;7.93;5.20;;;;;;;15.84;79.32;93858.66;4985845;28;20035;-80
2022/07/09 10:12:29;;;;;;;7.40;5.22;;;;;;;16.16;78.88;93849.50;4989484;28;20053;-81
2022/07/09 10:14:55;;;;;;;4.22;3.83;;;;;;;16.33;77.79;93853.00;4989091;28;20030;-80
2022/07/09 10:17:20;;;;;;;4.65;3.88;;;;;;;16.17;76.80;93826.91;4986753;28;20600;-80
2022/07/09 10:19:53;;;;;;;6.10;3.60;;;;;;;16.36;76.47;93887.19;4987403;28;20034;-80
2022/07/09 10:22:18;;;;;;;5.05;3.53;;;;;;;16.54;75.19;93864.19;4987324;28;20074;-80
2022/07/09 10:24:45;;;;;;;6.78;3.95;;;;;;;16.79;75.42;93865.53;4985363;28;20181;-80
2022/07/09 10:27:11;;;;;;;4.78;3.40;;;;;;;16.86;74.70;93860.34;4983890;28;20518;-81
2022/07/09 10:29:51;;;;;;;4.10;3.70;;;;;;;16.85;75.37;93861.47;4984046;28;20057;-80
2022/07/09 10:32:31;;;;;;;4.15;3.75;;;;;;;16.91;75.14;93841.25;4985974;28;20588;-80
2022/07/09 10:34:57;;;;;;;4.10;3.28;;;;;;;17.23;73.95;93881.47;4985562;28;20026;-80
2022/07/09 10:37:42;;;;;;;3.45;2.95;;;;;;;16.58;75.47;93886.53;4989753;28;20030;-83
2022/07/09 10:40:16;;;;;;;6.13;4.28;;;;;;;16.10;78.39;93872.34;4980742;28;20049;-83
2022/07/09 10:42:43;;;;;;;6.85;3.78;;;;;;;16.56;77.90;93886.13;4989298;28;20033;-82
2022/07/09 10:45:27;;;;;;;5.20;3.65;;;;;;;15.98;78.48;93852.88;4988619;28;20037;-82
2022/07/09 10:47:57;;;;;;;4.63;3.75;;;;;;;16.06;79.28;93871.47;4989564;28;20042;-83
2022/07/09 10:50:23;;;;;;;3.38;3.08;;;;;;;15.86;79.26;93845.69;4993522;28;20032;-81
2022/07/09 10:52:50;;;;;;;2.85;2.28;;;;;;;15.62;79.60;93884.13;4998196;28;20030;-80
2022/07/09 10:55:20;;;;;;;3.17;1.85;;;;;;;15.19;79.77;93850.00;5012128;28;20026;-80
2022/07/09 10:57:45;;;;;;;2.53;1.80;;;;;;;15.30;79.66;93877.84;5016840;28;20034;-79
2022/07/09 11:00:16;;;;;;;1.42;1.33;;;;;;;15.25;79.38;93878.13;5008967;28;20650;-80
2022/07/09 11:03:04;;;;;;;1.98;1.55;;;;;;;14.91;79.54;93881.34;5004434;28;20033;-80
2022/07/09 11:05:31;;;;;;;1.70;1.45;;;;;;;15.18;80.24;93898.56;4989783;28;20417;-80
2022/07/09 11:08:00;;;;;;;2.05;1.38;;;;;;;15.08;79.84;93886.44;4999037;28;20161;-80
2022/07/09 11:10:27;;;;;;;1.55;1.45;;;;;;;14.89;79.77;93872.84;4999050;28;20034;-80
2022/07/09 11:12:54;;;;;;;1.95;1.63;;;;;;;14.28;80.46;93854.16;4998462;28;20057;-80
2022/07/09 11:15:21;;;;;;;2.25;1.95;;;;;;;14.58;81.44;93901.00;4993632;28;20355;-81
2022/07/09 11:17:57;;;;;;;2.28;1.80;;;;;;;14.77;81.40;93905.00;4996717;28;20144;-80
2022/07/09 11:20:23;;;;;;;2.72;1.85;;;;;;;14.89;80.95;93894.28;4995060;28;20034;-81
2022/07/09 11:22:49;;;;;;;2.80;1.90;;;;;;;15.07;80.50;93900.94;4992272;28;20060;-81
2022/07/09 11:25:18;;;;;;;2.05;1.50;;;;;;;14.81;80.19;93849.69;4990118;28;20104;-80
2022/07/09 11:27:43;;;;;;;2.08;1.52;;;;;;;14.85;79.87;93872.75;4990728;28;20034;-80
2022/07/09 11:30:15;;;;;;;2.17;1.98;;;;;;;14.83;79.12;93852.78;4990312;28;20092;-81